Time;durP1;ratioP1;P1;durP2;ratioP2;P2;SDS_P1;SDS_P2;PMS_P1;PMS_P2;Temp;Humidity;BMP_temperature;BMP_pressure;BME280_temperature;BME280_humidity;BME280_pressure;Samples;Min_cycle;Max_cycle;Signal;HPM_P1;HPM_P2
2022/03/01 00:02:01;;;;;;;4.03;1.50;;;23.20;42.40;;;;;;4998212;28;20191;-68
2022/03/01 00:04:26;;;;;;;3.33;1.63;;;23.20;42.30;;;;;;4998297;28;20560;-68
2022/03/01 00:06:52;;;;;;;3.83;1.80;;;23.20;42.30;;;;;;4998040;28;20030;-68
2022/03/01 00:09:17;;;;;;;3.08;1.58;;;23.20;42.30;;;;;;4995795;28;20041;-67
2022/03/01 00:11:43;;;;;;;3.97;1.85;;;23.20;42.10;;;;;;5011933;28;20117;-67
2022/03/01 00:14:08;;;;;;;3.13;1.80;;;23.30;42.20;;;;;;4997962;28;20034;-68
2022/03/01 00:16:34;;;;;;;2.08;1.30;;;23.20;42.00;;;;;;4997897;28;20091;-69
2022/03/01 00:19:00;;;;;;;2.20;1.42;;;23.30;42.10;;;;;;5012703;28;20467;-65
2022/03/01 00:21:30;;;;;;;2.53;1.30;;;23.30;42.10;;;;;;4996260;28;20026;-69
2022/03/01 00:23:56;;;;;;;3.28;1.65;;;23.30;42.00;;;;;;4993982;28;20084;-67
2022/03/01 00:26:22;;;;;;;2.45;1.45;;;23.20;42.00;;;;;;4996241;28;20026;-66
2022/03/01 00:28:48;;;;;;;2.40;1.80;;;23.20;42.10;;;;;;5011513;28;20104;-69
2022/03/01 00:31:14;;;;;;;3.75;1.58;;;23.20;42.00;;;;;;4996871;28;20048;-67
2022/03/01 00:33:40;;;;;;;3.00;1.50;;;23.20;42.00;;;;;;4998820;28;20061;-69
2022/03/01 00:36:06;;;;;;;2.63;1.73;;;23.20;41.90;;;;;;5000500;28;20383;-68
2022/03/01 00:38:32;;;;;;;3.10;1.52;;;23.20;41.90;;;;;;5000123;28;20512;-68
2022/03/01 00:40:57;;;;;;;3.42;1.55;;;23.20;41.90;;;;;;4996688;28;20335;-66
2022/03/01 00:43:23;;;;;;;2.78;1.55;;;23.20;41.80;;;;;;4999341;28;20084;-67
2022/03/01 00:45:51;;;;;;;2.28;1.40;;;23.20;41.80;;;;;;5000858;28;20029;-68
2022/03/01 00:48:17;;;;;;;2.83;1.60;;;23.20;41.80;;;;;;5001515;28;20026;-68
2022/03/01 00:50:43;;;;;;;3.20;1.40;;;23.20;41.80;;;;;;4997465;28;20026;-69
2022/03/01 00:53:08;;;;;;;3.70;1.40;;;23.20;42.00;;;;;;4995581;28;20040;-68
2022/03/01 00:55:34;;;;;;;2.33;1.42;;;23.20;41.90;;;;;;4998133;28;20113;-70
2022/03/01 00:58:00;;;;;;;2.53;1.40;;;23.20;41.90;;;;;;4998389;28;20534;-69
2022/03/01 01:00:28;;;;;;;2.60;1.50;;;23.10;41.80;;;;;;5000527;28;20084;-69
2022/03/01 01:02:53;;;;;;;2.65;1.48;;;23.10;41.80;;;;;;4997019;28;20354;-69
2022/03/01 01:05:19;;;;;;;2.45;1.50;;;23.10;41.80;;;;;;4996024;28;20169;-69
2022/03/01 01:07:45;;;;;;;2.67;1.50;;;23.10;41.70;;;;;;4994729;28;20065;-69
2022/03/01 01:10:11;;;;;;;2.72;1.50;;;23.00;42.30;;;;;;4996385;28;20018;-70
2022/03/01 01:12:39;;;;;;;2.33;1.50;;;22.90;41.70;;;;;;4997636;28;20030;-70
2022/03/01 01:15:05;;;;;;;2.35;1.45;;;23.00;41.70;;;;;;4998833;28;20058;-69
2022/03/01 01:17:31;;;;;;;2.25;1.38;;;22.90;41.70;;;;;;4998423;28;20112;-69
2022/03/01 01:19:57;;;;;;;2.92;1.40;;;22.90;41.80;;;;;;4996715;28;20120;-67
2022/03/01 01:22:40;;;;;;;1.92;1.30;;;22.90;41.70;;;;;;5011138;28;20526;-70
2022/03/01 01:25:09;;;;;;;4.38;1.85;;;22.90;41.80;;;;;;4994323;28;20027;-70
2022/03/01 01:27:36;;;;;;;2.08;1.35;;;22.80;41.70;;;;;;4997586;28;20576;-67
2022/03/01 01:30:06;;;;;;;2.30;1.42;;;22.80;41.70;;;;;;4996029;28;20030;-69
2022/03/01 01:32:32;;;;;;;2.28;1.50;;;22.80;41.70;;;;;;4995059;28;20474;-70
2022/03/01 01:34:58;;;;;;;1.98;1.25;;;22.80;41.70;;;;;;4996782;28;20114;-69
2022/03/01 01:37:23;;;;;;;2.30;1.38;;;22.80;41.70;;;;;;4996519;28;20168;-70
2022/03/01 01:39:49;;;;;;;2.80;1.45;;;22.70;41.70;;;;;;4993681;28;20512;-70
2022/03/01 01:42:14;;;;;;;2.08;1.23;;;22.70;41.70;;;;;;4996638;28;20026;-70
2022/03/01 01:44:43;;;;;;;1.98;1.33;;;22.70;41.70;;;;;;4996759;28;20022;-69
2022/03/01 01:47:09;;;;;;;1.95;1.35;;;22.60;41.60;;;;;;5011697;28;20623;-69
2022/03/01 01:49:34;;;;;;;2.25;1.40;;;22.60;41.60;;;;;;4994681;28;20031;-70
2022/03/01 01:52:00;;;;;;;2.50;1.45;;;22.60;41.70;;;;;;4996671;28;20041;-70
2022/03/01 01:54:26;;;;;;;2.60;1.10;;;22.60;41.70;;;;;;4992952;28;20033;-70
2022/03/01 01:56:52;;;;;;;3.25;1.40;;;22.50;41.70;;;;;;4995215;28;20482;-69
2022/03/01 01:59:17;;;;;;;3.00;1.45;;;22.50;41.60;;;;;;4996199;28;20049;-70
2022/03/01 02:01:44;;;;;;;2.38;1.42;;;22.50;41.70;;;;;;4995329;28;20042;-68
2022/03/01 02:04:10;;;;;;;3.28;1.40;;;22.50;41.70;;;;;;4993694;28;20491;-67
2022/03/01 02:06:37;;;;;;;2.58;1.30;;;22.50;41.70;;;;;;4996407;28;20556;-69
2022/03/01 02:09:03;;;;;;;1.83;1.33;;;22.50;41.70;;;;;;4993118;28;20021;-70
2022/03/01 02:11:29;;;;;;;2.65;1.40;;;22.40;41.70;;;;;;4995151;28;20030;-70
2022/03/01 02:13:54;;;;;;;3.72;1.70;;;22.40;41.70;;;;;;4995850;28;20521;-69
2022/03/01 02:16:21;;;;;;;2.83;1.60;;;22.30;41.70;;;;;;4997336;28;20034;-67
2022/03/01 02:18:47;;;;;;;2.35;1.50;;;22.40;41.70;;;;;;4997965;28;20025;-69
2022/03/01 02:21:13;;;;;;;2.10;1.35;;;22.30;41.70;;;;;;5011269;28;20124;-67
2022/03/01 02:23:39;;;;;;;1.92;1.25;;;22.30;41.70;;;;;;5009528;28;20068;-68
2022/03/01 02:26:04;;;;;;;1.98;1.30;;;22.30;41.80;;;;;;4993704;28;20038;-69
2022/03/01 02:28:30;;;;;;;2.10;1.40;;;22.20;41.80;;;;;;5010600;28;20080;-69
2022/03/01 02:30:55;;;;;;;2.00;1.30;;;22.20;41.80;;;;;;4995275;28;20037;-70
2022/03/01 02:33:21;;;;;;;2.15;1.40;;;22.20;41.80;;;;;;4996144;28;20104;-70
2022/03/01 02:35:47;;;;;;;2.40;1.50;;;22.10;41.80;;;;;;4996083;28;20026;-67
2022/03/01 02:38:12;;;;;;;2.13;1.30;;;22.10;41.80;;;;;;4994311;28;20057;-70
2022/03/01 02:40:38;;;;;;;2.20;1.38;;;22.10;41.80;;;;;;5008792;28;20026;-70
2022/03/01 02:43:05;;;;;;;2.45;1.52;;;22.10;41.90;;;;;;4995429;28;20078;-70
2022/03/01 02:45:31;;;;;;;2.03;1.50;;;22.10;41.90;;;;;;4996465;28;20018;-70
2022/03/01 02:47:56;;;;;;;1.95;1.35;;;22.10;41.90;;;;;;4995923;28;20041;-67
2022/03/01 02:50:22;;;;;;;2.00;1.30;;;22.10;41.90;;;;;;4996375;28;20054;-70
2022/03/01 02:52:48;;;;;;;1.92;1.23;;;22.00;41.90;;;;;;4995152;28;20031;-67
2022/03/01 02:55:14;;;;;;;2.78;1.50;;;22.00;41.90;;;;;;5008618;28;20466;-69
2022/03/01 02:57:41;;;;;;;2.00;1.50;;;22.00;42.40;;;;;;4995012;28;21003;-70
2022/03/01 03:00:07;;;;;;;2.05;1.45;;;22.00;41.90;;;;;;5011166;28;20072;-66
2022/03/01 03:02:33;;;;;;;2.10;1.30;;;22.00;42.00;;;;;;4996105;28;20041;-68
2022/03/01 03:04:58;;;;;;;2.65;1.30;;;21.90;42.00;;;;;;4995948;28;20513;-70
2022/03/01 03:07:24;;;;;;;2.45;1.30;;;21.90;42.00;;;;;;4995477;28;20038;-67
2022/03/01 03:09:50;;;;;;;1.63;1.20;;;21.90;42.00;;;;;;4994075;28;20023;-69
2022/03/01 03:12:16;;;;;;;2.58;1.40;;;21.90;42.00;;;;;;4994735;28;20630;-69
2022/03/01 03:14:42;;;;;;;2.60;1.50;;;21.90;42.10;;;;;;4995967;28;20133;-70
2022/03/01 03:17:07;;;;;;;1.60;1.17;;;21.90;42.10;;;;;;4996607;28;20026;-70
2022/03/01 03:19:33;;;;;;;2.03;1.42;;;21.80;42.60;;;;;;4994391;28;20042;-68
2022/03/01 03:21:59;;;;;;;2.67;1.50;;;21.90;42.20;;;;;;4995826;28;20444;-69
2022/03/01 03:24:25;;;;;;;2.15;1.40;;;21.80;42.20;;;;;;4993997;28;20053;-69
2022/03/01 03:26:51;;;;;;;2.03;1.30;;;21.80;42.20;;;;;;4996678;28;20034;-67
2022/03/01 03:29:18;;;;;;;2.78;1.45;;;21.80;42.20;;;;;;4999840;28;20072;-68
2022/03/01 03:31:44;;;;;;;2.70;1.38;;;21.80;42.20;;;;;;4999316;28;20045;-70
2022/03/01 03:34:11;;;;;;;2.30;1.38;;;21.70;42.20;;;;;;4999422;28;20034;-66
2022/03/01 03:36:39;;;;;;;2.60;1.50;;;21.70;42.30;;;;;;4999674;28;20040;-70
2022/03/01 03:39:07;;;;;;;1.90;1.38;;;21.70;42.30;;;;;;4997963;28;20441;-69
2022/03/01 03:41:32;;;;;;;2.47;1.42;;;21.70;42.30;;;;;;5012720;28;20228;-68
2022/03/01 03:43:59;;;;;;;2.35;1.42;;;21.70;42.30;;;;;;4997279;28;20234;-70
2022/03/01 03:46:25;;;;;;;1.98;1.50;;;21.60;42.80;;;;;;5000769;28;20060;-69
2022/03/01 03:48:52;;;;;;;2.05;1.27;;;21.70;42.30;;;;;;4998843;28;20451;-70
2022/03/01 03:51:19;;;;;;;2.10;1.40;;;21.70;42.30;;;;;;5000691;28;20521;-70
2022/03/01 03:53:45;;;;;;;2.60;1.42;;;21.60;42.30;;;;;;5013788;28;20510;-68
2022/03/01 03:56:11;;;;;;;2.22;1.42;;;21.60;42.30;;;;;;4999022;28;20025;-69
2022/03/01 03:58:36;;;;;;;1.83;1.23;;;21.60;42.40;;;;;;5013627;28;21046;-68
2022/03/01 04:01:03;;;;;;;2.15;1.42;;;21.60;42.40;;;;;;5000093;28;20034;-69
2022/03/01 04:03:29;;;;;;;1.95;1.20;;;21.60;42.90;;;;;;4998658;28;20052;-69
2022/03/01 04:05:54;;;;;;;2.33;1.42;;;21.60;42.50;;;;;;5000251;28;20026;-69
2022/03/01 04:08:20;;;;;;;2.42;1.52;;;21.50;42.40;;;;;;4997149;28;20446;-70
2022/03/01 04:10:46;;;;;;;2.20;1.38;;;21.50;42.50;;;;;;4996124;28;20141;-69
2022/03/01 04:13:11;;;;;;;2.08;1.35;;;21.40;42.50;;;;;;4999431;28;20064;-70
2022/03/01 04:15:38;;;;;;;1.77;1.40;;;21.50;42.50;;;;;;4999521;28;20053;-70
2022/03/01 04:18:04;;;;;;;2.17;1.40;;;21.40;42.50;;;;;;5000037;28;20037;-69
2022/03/01 04:20:30;;;;;;;2.20;1.40;;;21.40;42.60;;;;;;4998997;28;20105;-69
2022/03/01 04:22:56;;;;;;;2.08;1.38;;;21.40;42.60;;;;;;4998525;28;20114;-70
2022/03/01 04:25:22;;;;;;;1.70;1.10;;;21.40;42.60;;;;;;4996696;28;20030;-69
2022/03/01 04:27:48;;;;;;;2.08;1.30;;;21.40;42.60;;;;;;5000135;28;20036;-68
2022/03/01 04:30:15;;;;;;;1.98;1.38;;;21.40;42.60;;;;;;4999867;28;20521;-70
2022/03/01 04:32:42;;;;;;;2.10;1.30;;;21.40;42.60;;;;;;4999246;28;20478;-70
2022/03/01 04:35:09;;;;;;;1.95;1.40;;;21.40;42.60;;;;;;4999518;28;20421;-70
2022/03/01 04:37:39;;;;;;;2.05;1.40;;;21.40;42.60;;;;;;4998493;28;20109;-70
2022/03/01 04:40:06;;;;;;;2.10;1.50;;;21.40;42.70;;;;;;4995093;28;20122;-70
2022/03/01 04:42:32;;;;;;;2.28;1.63;;;21.40;42.70;;;;;;4999482;28;20026;-69
2022/03/01 04:44:58;;;;;;;2.08;1.40;;;21.40;42.70;;;;;;4998298;28;20117;-67
2022/03/01 04:47:24;;;;;;;2.35;1.50;;;21.40;42.70;;;;;;4997881;28;20617;-66
2022/03/01 04:49:50;;;;;;;2.40;1.50;;;21.40;42.70;;;;;;4997425;28;20121;-67
2022/03/01 04:52:16;;;;;;;1.90;1.50;;;21.30;42.60;;;;;;4998142;28;20029;-69
2022/03/01 04:54:41;;;;;;;1.98;1.23;;;21.30;42.70;;;;;;4997906;28;20026;-70
2022/03/01 04:57:07;;;;;;;2.90;1.35;;;21.30;42.70;;;;;;4998272;28;20105;-69
2022/03/01 04:59:33;;;;;;;2.95;1.35;;;21.30;42.70;;;;;;4996243;28;20064;-67
2022/03/01 05:01:59;;;;;;;2.20;1.30;;;21.30;42.70;;;;;;4997573;28;20046;-68
2022/03/01 05:04:24;;;;;;;2.50;1.63;;;21.30;42.70;;;;;;4999615;28;20022;-70
2022/03/01 05:06:51;;;;;;;1.60;1.10;;;21.30;42.70;;;;;;4996983;28;20041;-67
2022/03/01 05:09:17;;;;;;;2.30;1.50;;;21.30;42.70;;;;;;4996783;28;20100;-67
2022/03/01 05:11:43;;;;;;;2.08;1.35;;;21.30;42.70;;;;;;5012285;28;20419;-69
2022/03/01 05:14:08;;;;;;;1.75;1.27;;;21.30;42.70;;;;;;4998459;28;20061;-67
2022/03/01 05:16:34;;;;;;;2.20;1.40;;;21.30;42.70;;;;;;4997850;28;20032;-70
2022/03/01 05:19:00;;;;;;;2.08;1.50;;;21.30;42.80;;;;;;4998187;28;20517;-69
2022/03/01 05:21:26;;;;;;;1.92;1.35;;;21.30;42.80;;;;;;4997792;28;20060;-69
2022/03/01 05:23:51;;;;;;;1.95;1.33;;;21.30;42.80;;;;;;4996841;28;20045;-69
2022/03/01 05:26:18;;;;;;;1.83;1.30;;;21.20;42.70;;;;;;4995788;28;20041;-69
2022/03/01 05:28:44;;;;;;;1.75;1.30;;;21.20;42.80;;;;;;4997097;28;20064;-70
2022/03/01 05:31:10;;;;;;;1.75;1.30;;;21.30;42.80;;;;;;4997793;28;20044;-69
2022/03/01 05:33:36;;;;;;;1.90;1.30;;;21.30;42.80;;;;;;4997369;28;20036;-69
2022/03/01 05:36:02;;;;;;;2.08;1.42;;;21.20;43.30;;;;;;4997795;28;20418;-70
2022/03/01 05:38:28;;;;;;;2.10;1.33;;;21.20;42.80;;;;;;4996111;28;20030;-69
2022/03/01 05:40:53;;;;;;;1.90;1.30;;;21.20;42.80;;;;;;4997702;28;20029;-70
2022/03/01 05:43:19;;;;;;;2.63;1.58;;;21.20;42.80;;;;;;4997178;28;20030;-67
2022/03/01 05:45:45;;;;;;;2.10;1.50;;;21.20;42.80;;;;;;4997316;28;20053;-69
2022/03/01 05:48:10;;;;;;;2.40;1.52;;;21.20;42.90;;;;;;5012369;28;20029;-70
2022/03/01 05:50:36;;;;;;;2.08;1.40;;;21.20;42.90;;;;;;4998063;28;20057;-67
2022/03/01 05:53:02;;;;;;;1.60;1.10;;;21.20;42.90;;;;;;4996261;28;20494;-70
2022/03/01 05:55:28;;;;;;;1.80;1.30;;;21.20;42.90;;;;;;4996626;28;20044;-70
2022/03/01 05:57:54;;;;;;;1.50;1.10;;;21.10;42.90;;;;;;4996985;28;20037;-69
2022/03/01 06:00:20;;;;;;;1.80;1.20;;;21.10;42.90;;;;;;4996175;28;20038;-69
2022/03/01 06:02:49;;;;;;;1.92;1.35;;;21.10;42.90;;;;;;4997265;28;20065;-67
2022/03/01 06:05:15;;;;;;;2.05;1.40;;;21.10;42.90;;;;;;4995395;28;20022;-70
2022/03/01 06:07:42;;;;;;;1.63;1.10;;;21.10;42.90;;;;;;5010069;28;20034;-70
2022/03/01 06:10:08;;;;;;;2.40;1.50;;;21.10;43.00;;;;;;4994594;28;20028;-69
2022/03/01 06:12:34;;;;;;;2.00;1.40;;;21.10;43.00;;;;;;4997311;28;20058;-67
2022/03/01 06:14:59;;;;;;;1.90;1.38;;;21.10;43.00;;;;;;4996745;28;20059;-68
2022/03/01 06:17:25;;;;;;;2.10;1.27;;;21.10;43.00;;;;;;5010836;28;20100;-66
2022/03/01 06:19:51;;;;;;;1.88;1.27;;;21.10;43.00;;;;;;4996073;28;20081;-67
2022/03/01 06:22:16;;;;;;;2.03;1.50;;;21.10;43.00;;;;;;4996663;28;20100;-69
2022/03/01 06:24:43;;;;;;;1.88;1.20;;;21.10;43.00;;;;;;4994209;28;20072;-70
2022/03/01 06:27:09;;;;;;;2.25;1.50;;;21.10;43.00;;;;;;5010555;28;20066;-68
2022/03/01 06:29:36;;;;;;;2.00;1.27;;;21.00;43.50;;;;;;5010371;28;20550;-70
2022/03/01 06:32:02;;;;;;;1.95;1.30;;;21.00;43.00;;;;;;4996979;28;20494;-69
2022/03/01 06:34:28;;;;;;;2.13;1.30;;;21.00;43.00;;;;;;4996873;28;20085;-70
2022/03/01 06:36:54;;;;;;;1.85;1.40;;;21.00;43.00;;;;;;4997021;28;20030;-66
2022/03/01 06:39:19;;;;;;;1.98;1.35;;;21.00;43.10;;;;;;5009158;28;20068;-69
2022/03/01 06:41:45;;;;;;;2.00;1.40;;;21.00;43.00;;;;;;4995011;28;20120;-70
2022/03/01 06:44:11;;;;;;;2.40;1.50;;;21.00;43.00;;;;;;4996332;28;20030;-69
2022/03/01 06:46:36;;;;;;;2.03;1.50;;;21.00;43.10;;;;;;4997854;28;20632;-70
2022/03/01 06:49:02;;;;;;;1.90;1.33;;;21.00;43.10;;;;;;5010379;28;20034;-70
2022/03/01 06:51:29;;;;;;;2.33;1.40;;;21.00;43.10;;;;;;4996789;28;20342;-69
2022/03/01 06:53:54;;;;;;;1.65;1.23;;;21.00;43.10;;;;;;4993419;28;20033;-69
2022/03/01 06:56:20;;;;;;;2.05;1.40;;;21.00;43.10;;;;;;4993228;28;20018;-70
2022/03/01 06:58:46;;;;;;;1.83;1.25;;;21.00;43.20;;;;;;4996904;28;20034;-69
2022/03/01 07:01:12;;;;;;;2.55;1.55;;;20.90;43.10;;;;;;4993654;28;20422;-69
2022/03/01 07:03:39;;;;;;;1.77;1.20;;;20.90;43.10;;;;;;4996335;28;20021;-67
2022/03/01 07:06:05;;;;;;;2.20;1.25;;;20.90;43.10;;;;;;4997838;28;20027;-70
2022/03/01 07:08:31;;;;;;;1.83;1.20;;;20.90;43.10;;;;;;4994099;28;20034;-70
2022/03/01 07:10:58;;;;;;;2.30;1.30;;;20.90;43.10;;;;;;4995914;28;20187;-69
2022/03/01 07:13:23;;;;;;;1.90;1.30;;;20.90;43.20;;;;;;4995923;28;20019;-66
2022/03/01 07:15:49;;;;;;;2.47;1.35;;;20.90;43.20;;;;;;4996123;28;20052;-68
2022/03/01 07:18:15;;;;;;;2.03;1.13;;;20.90;43.20;;;;;;4995959;28;20033;-70
2022/03/01 07:20:41;;;;;;;2.00;1.40;;;20.90;43.20;;;;;;4995753;28;20031;-70
2022/03/01 07:23:07;;;;;;;1.95;1.30;;;20.90;43.30;;;;;;4996216;28;20077;-67
2022/03/01 07:25:33;;;;;;;3.15;1.70;;;20.90;43.30;;;;;;4994083;28;20033;-68
2022/03/01 07:27:58;;;;;;;2.47;1.48;;;20.90;43.30;;;;;;4996184;28;20090;-68
2022/03/01 07:30:27;;;;;;;3.00;1.55;;;20.90;43.30;;;;;;5009299;28;20107;-67
2022/03/01 07:32:59;;;;;;;3.17;1.48;;;20.90;43.30;;;;;;4994462;28;20158;-69
2022/03/01 07:35:26;;;;;;;4.88;2.15;;;20.80;43.30;;;;;;4996562;28;20053;-71
2022/03/01 07:37:52;;;;;;;3.97;1.60;;;20.90;43.50;;;;;;4993335;28;20038;-70
2022/03/01 07:40:21;;;;;;;3.75;1.60;;;20.90;43.30;;;;;;5007990;28;20038;-69
2022/03/01 07:42:47;;;;;;;2.88;1.50;;;20.80;43.20;;;;;;4996068;28;20117;-69
2022/03/01 07:45:13;;;;;;;2.78;1.52;;;20.80;43.20;;;;;;4996751;28;20081;-70
2022/03/01 07:47:39;;;;;;;2.45;1.52;;;20.80;43.20;;;;;;4997210;28;20025;-68
2022/03/01 07:50:06;;;;;;;2.80;1.45;;;20.80;43.70;;;;;;4996689;28;20034;-69
2022/03/01 07:52:32;;;;;;;3.33;1.67;;;20.80;43.20;;;;;;5010592;28;20088;-69
2022/03/01 07:54:57;;;;;;;3.95;1.83;;;20.80;43.20;;;;;;4993801;28;20309;-69
2022/03/01 07:57:23;;;;;;;3.63;1.80;;;20.80;43.20;;;;;;4995205;28;20042;-69
2022/03/01 07:59:48;;;;;;;4.15;1.90;;;20.80;43.20;;;;;;4995262;28;20699;-69
2022/03/01 08:02:14;;;;;;;3.20;1.70;;;20.80;43.70;;;;;;4995640;28;20049;-68
2022/03/01 08:04:41;;;;;;;4.55;2.00;;;20.80;43.20;;;;;;4996011;28;20648;-69
2022/03/01 08:07:09;;;;;;;3.45;1.80;;;20.80;43.20;;;;;;4995959;28;20497;-68
2022/03/01 08:09:35;;;;;;;3.70;1.70;;;20.80;43.70;;;;;;4998220;28;20560;-68
2022/03/01 08:12:02;;;;;;;3.67;1.90;;;20.80;43.30;;;;;;4996265;28;20026;-69
2022/03/01 08:14:30;;;;;;;3.30;1.70;;;20.80;43.30;;;;;;5001668;28;20076;-70
2022/03/01 08:16:56;;;;;;;3.63;2.20;;;20.80;43.30;;;;;;4999636;28;20033;-67
2022/03/01 08:19:23;;;;;;;4.10;1.83;;;20.80;43.40;;;;;;5012343;28;20034;-70
2022/03/01 08:21:48;;;;;;;4.72;1.92;;;20.80;43.30;;;;;;4996817;28;20512;-66
2022/03/01 08:24:14;;;;;;;3.75;1.88;;;20.80;43.40;;;;;;4995545;28;20033;-69
2022/03/01 08:26:40;;;;;;;3.78;2.17;;;20.80;43.50;;;;;;4994434;28;20034;-66
2022/03/01 08:29:06;;;;;;;3.38;1.98;;;20.70;44.10;;;;;;4995502;28;20096;-68
2022/03/01 08:31:32;;;;;;;3.47;1.50;;;20.70;43.70;;;;;;4996940;28;20161;-67
2022/03/01 08:33:59;;;;;;;3.75;1.70;;;20.70;43.90;;;;;;4998172;28;20629;-70
2022/03/01 08:36:26;;;;;;;3.60;1.67;;;20.70;44.00;;;;;;4995601;28;20451;-68
2022/03/01 08:38:52;;;;;;;2.83;1.60;;;20.70;44.10;;;;;;4994427;28;20026;-68
2022/03/01 08:41:17;;;;;;;3.20;1.73;;;20.70;44.10;;;;;;4993229;28;20111;-68
2022/03/01 08:43:43;;;;;;;4.47;1.73;;;20.70;44.20;;;;;;4997016;28;20030;-66
2022/03/01 08:46:13;;;;;;;3.63;1.60;;;20.70;44.30;;;;;;5001815;28;20034;-66
2022/03/01 08:48:40;;;;;;;4.07;1.95;;;20.70;44.40;;;;;;4996388;28;20018;-66
2022/03/01 08:51:06;;;;;;;3.00;1.55;;;20.70;44.40;;;;;;4998780;28;20057;-69
2022/03/01 08:53:32;;;;;;;3.42;1.70;;;20.70;44.40;;;;;;5011729;28;20026;-69
2022/03/01 08:55:59;;;;;;;3.17;1.80;;;20.70;44.40;;;;;;4996490;28;20109;-67
2022/03/01 08:58:24;;;;;;;3.85;1.60;;;20.70;44.40;;;;;;4997976;28;20526;-68
2022/03/01 09:00:51;;;;;;;3.80;1.50;;;20.70;44.40;;;;;;4995892;28;20061;-69
2022/03/01 09:03:17;;;;;;;3.72;1.60;;;20.80;44.60;;;;;;4997490;28;20052;-67
2022/03/01 09:05:43;;;;;;;4.25;1.65;;;20.80;44.60;;;;;;4997452;28;20057;-69
2022/03/01 09:08:12;;;;;;;6.20;1.90;;;20.70;44.70;;;;;;5013790;28;20070;-70
2022/03/01 09:10:39;;;;;;;5.75;1.80;;;20.80;44.80;;;;;;4996353;28;20494;-66
2022/03/01 09:13:04;;;;;;;5.43;1.90;;;20.80;45.00;;;;;;4998817;28;20471;-70
2022/03/01 09:15:32;;;;;;;5.38;2.00;;;20.80;45.20;;;;;;4998878;28;20127;-68
2022/03/01 09:17:58;;;;;;;5.32;1.80;;;20.80;45.40;;;;;;4994756;28;20038;-68
2022/03/01 09:20:25;;;;;;;7.07;2.15;;;20.80;45.40;;;;;;4995827;28;20038;-70
2022/03/01 09:22:56;;;;;;;6.38;1.88;;;20.70;45.60;;;;;;4996387;28;20113;-70
2022/03/01 09:25:22;;;;;;;6.20;2.08;;;20.80;45.70;;;;;;5011768;28;20116;-69
2022/03/01 09:27:47;;;;;;;5.75;1.70;;;20.80;45.80;;;;;;5012798;28;20030;-69
2022/03/01 09:30:15;;;;;;;6.90;1.92;;;20.80;46.00;;;;;;5002401;28;20033;-69
2022/03/01 09:32:40;;;;;;;7.50;1.90;;;20.80;46.00;;;;;;4996977;28;20030;-68
2022/03/01 09:35:07;;;;;;;4.68;1.90;;;20.80;46.00;;;;;;4996914;28;20030;-68
2022/03/01 09:37:33;;;;;;;5.43;1.90;;;20.80;46.00;;;;;;4997727;28;20509;-69
2022/03/01 09:40:00;;;;;;;7.00;2.15;;;20.70;45.80;;;;;;5008253;28;20041;-65
2022/03/01 09:42:27;;;;;;;9.65;2.20;;;20.80;45.70;;;;;;4997505;28;20056;-69
2022/03/01 09:44:56;;;;;;;4.80;1.80;;;20.70;45.50;;;;;;4997758;28;20069;-69
2022/03/01 09:47:22;;;;;;;7.35;1.98;;;20.80;45.40;;;;;;4997521;28;20033;-67
2022/03/01 09:49:48;;;;;;;5.32;2.00;;;20.80;45.30;;;;;;4997076;28;20031;-68
2022/03/01 09:52:15;;;;;;;7.20;1.77;;;20.80;45.70;;;;;;4995375;28;20030;-69
2022/03/01 09:54:41;;;;;;;5.57;1.80;;;20.70;45.00;;;;;;4995582;28;20481;-68
2022/03/01 09:57:07;;;;;;;5.10;2.10;;;20.80;44.90;;;;;;4996648;28;20037;-64
2022/03/01 09:59:33;;;;;;;4.50;2.00;;;20.80;44.80;;;;;;5012287;28;20259;-68
2022/03/01 10:01:59;;;;;;;4.35;1.90;;;20.70;44.50;;;;;;4995822;28;20045;-69
2022/03/01 10:04:25;;;;;;;6.60;1.85;;;20.70;44.30;;;;;;4995602;28;20030;-68
2022/03/01 10:06:51;;;;;;;5.55;1.70;;;20.70;44.20;;;;;;4996402;28;20045;-69
2022/03/01 10:09:20;;;;;;;4.90;1.80;;;20.70;44.00;;;;;;4992355;28;20085;-68
2022/03/01 10:11:47;;;;;;;5.27;1.87;;;20.70;43.90;;;;;;4995344;28;20026;-69
2022/03/01 10:14:13;;;;;;;5.35;1.88;;;20.70;43.80;;;;;;5000156;28;20022;-68
2022/03/01 10:16:45;;;;;;;4.80;1.85;;;20.70;43.60;;;;;;4995205;28;20056;-68
2022/03/01 10:19:20;;;;;;;6.00;1.92;;;20.70;43.50;;;;;;4996562;28;20026;-68
2022/03/01 10:22:04;;;;;;;5.35;1.92;;;20.70;43.50;;;;;;4995337;28;20037;-68
2022/03/01 10:24:30;;;;;;;4.93;1.77;;;20.70;43.30;;;;;;5010757;28;20027;-66
2022/03/01 10:26:58;;;;;;;4.05;1.63;;;20.70;43.30;;;;;;4996031;28;20077;-68
2022/03/01 10:29:28;;;;;;;4.47;1.83;;;20.70;43.30;;;;;;4992980;28;20044;-68
2022/03/01 10:32:09;;;;;;;5.75;1.95;;;20.70;43.30;;;;;;5010403;28;20048;-68
2022/03/01 10:34:34;;;;;;;5.15;1.70;;;20.70;43.20;;;;;;4995118;28;20117;-68
2022/03/01 10:37:00;;;;;;;2.92;1.55;;;20.70;43.20;;;;;;4996684;28;20543;-68
2022/03/01 10:39:28;;;;;;;4.05;1.50;;;20.70;43.20;;;;;;5008349;28;20084;-66
2022/03/01 10:41:54;;;;;;;5.10;2.10;;;20.70;43.20;;;;;;4996110;28;20029;-68
2022/03/01 10:44:22;;;;;;;4.13;1.55;;;20.70;43.10;;;;;;5005635;28;20063;-69
2022/03/01 10:46:53;;;;;;;5.00;1.90;;;20.70;43.10;;;;;;4992673;28;20069;-68
2022/03/01 10:49:25;;;;;;;3.20;1.50;;;20.70;43.30;;;;;;4991203;28;20084;-69
2022/03/01 10:51:56;;;;;;;3.50;1.63;;;20.70;43.90;;;;;;4990582;28;20026;-67
2022/03/01 10:54:35;;;;;;;4.38;1.77;;;20.80;43.50;;;;;;4992507;28;20038;-68
2022/03/01 10:57:04;;;;;;;3.80;1.75;;;20.80;43.40;;;;;;4992400;28;20054;-69
2022/03/01 10:59:32;;;;;;;4.28;1.70;;;20.90;43.30;;;;;;4992879;28;20053;-68
2022/03/01 11:01:58;;;;;;;4.20;1.63;;;20.90;43.20;;;;;;4993595;28;20462;-69
2022/03/01 11:04:25;;;;;;;3.17;1.60;;;20.90;43.10;;;;;;5007248;28;20088;-68
2022/03/01 11:06:59;;;;;;;3.95;1.70;;;20.90;43.10;;;;;;4993336;28;20038;-67
2022/03/01 11:09:28;;;;;;;4.80;1.73;;;20.90;43.10;;;;;;4989888;28;20034;-68
2022/03/01 11:11:56;;;;;;;3.28;1.65;;;21.00;43.10;;;;;;4993498;28;20041;-67
2022/03/01 11:14:52;;;;;;;3.38;1.75;;;21.00;43.00;;;;;;4993877;28;20034;-70
2022/03/01 11:17:29;;;;;;;2.55;1.40;;;21.00;42.90;;;;;;4993172;28;20140;-70
2022/03/01 11:20:00;;;;;;;6.25;1.75;;;21.10;42.90;;;;;;4992549;28;20038;-68
2022/03/01 11:22:32;;;;;;;2.80;1.40;;;21.10;42.90;;;;;;4992764;28;20591;-67
2022/03/01 11:24:58;;;;;;;3.83;1.70;;;21.10;43.00;;;;;;4990483;28;20080;-69
2022/03/01 11:27:26;;;;;;;3.83;1.77;;;21.20;43.00;;;;;;5008920;28;20034;-69
2022/03/01 11:30:03;;;;;;;3.78;1.80;;;21.20;42.90;;;;;;4991896;28;20033;-70
2022/03/01 11:32:42;;;;;;;3.75;1.80;;;21.20;42.90;;;;;;4989921;28;20038;-69
2022/03/01 11:35:19;;;;;;;3.22;1.55;;;21.10;42.80;;;;;;4989771;28;20061;-70
2022/03/01 11:37:46;;;;;;;3.42;1.80;;;21.20;42.80;;;;;;4990790;28;20034;-69
2022/03/01 11:40:22;;;;;;;3.28;1.38;;;21.20;42.80;;;;;;4989105;28;20835;-70
2022/03/01 11:42:48;;;;;;;3.50;1.60;;;21.30;42.90;;;;;;4988612;28;20030;-69
2022/03/01 11:45:15;;;;;;;3.17;1.52;;;21.30;43.00;;;;;;4991715;28;20099;-70
2022/03/01 11:47:41;;;;;;;3.70;1.38;;;21.30;42.90;;;;;;4993129;28;20026;-70
2022/03/01 11:50:13;;;;;;;3.72;1.40;;;21.20;42.90;;;;;;5010461;28;20032;-70
2022/03/01 11:53:06;;;;;;;3.38;1.70;;;21.30;43.00;;;;;;4992084;28;20042;-69
2022/03/01 11:55:41;;;;;;;4.65;1.60;;;21.30;43.00;;;;;;4992450;28;20069;-69
2022/03/01 11:58:07;;;;;;;2.88;1.30;;;21.30;43.00;;;;;;4996960;28;20029;-69
2022/03/01 12:00:35;;;;;;;2.47;1.30;;;21.30;43.00;;;;;;5009603;28;20049;-68
2022/03/01 12:03:02;;;;;;;3.42;1.40;;;21.30;43.00;;;;;;4996168;28;20022;-69
2022/03/01 12:05:28;;;;;;;2.65;1.20;;;21.30;43.00;;;;;;5009981;28;20026;-69
2022/03/01 12:07:54;;;;;;;3.33;1.30;;;21.30;43.00;;;;;;4994254;28;20441;-69
2022/03/01 12:10:22;;;;;;;2.97;1.50;;;21.40;43.10;;;;;;5007201;28;20034;-65
2022/03/01 12:12:48;;;;;;;3.28;1.40;;;21.30;43.10;;;;;;4995332;28;20509;-68
2022/03/01 12:15:30;;;;;;;4.82;1.80;;;21.40;43.20;;;;;;4994043;28;20041;-68
2022/03/01 12:17:57;;;;;;;4.25;1.60;;;21.40;43.20;;;;;;4992482;28;20116;-67
2022/03/01 12:20:24;;;;;;;4.18;1.42;;;21.30;43.10;;;;;;4994650;28;20482;-68
2022/03/01 12:23:01;;;;;;;3.17;1.45;;;21.40;43.20;;;;;;4993327;28;20115;-68
2022/03/01 12:25:31;;;;;;;4.95;1.65;;;21.30;43.20;;;;;;4991981;28;20018;-67
2022/03/01 12:27:57;;;;;;;3.83;1.50;;;21.40;43.20;;;;;;4994876;28;20030;-68
2022/03/01 12:30:24;;;;;;;3.88;1.67;;;21.40;43.20;;;;;;4995081;28;20034;-67
2022/03/01 12:32:56;;;;;;;4.35;1.80;;;21.40;43.20;;;;;;4996795;28;20111;-66
2022/03/01 12:35:23;;;;;;;4.35;1.60;;;21.40;43.20;;;;;;4995198;28;20026;-64
2022/03/01 12:37:50;;;;;;;3.92;1.50;;;21.40;43.20;;;;;;4993792;28;20030;-67
2022/03/01 12:40:30;;;;;;;3.25;1.40;;;21.40;43.20;;;;;;4991983;28;20393;-65
2022/03/01 12:43:00;;;;;;;;;;;21.40;43.20;;;;;;4995986;28;20022;-67
2022/03/01 12:45:38;;;;;;;2.95;1.40;;;21.40;43.20;;;;;;5010186;28;20437;-65
2022/03/01 12:48:05;;;;;;;4.07;1.65;;;21.40;43.20;;;;;;4995593;28;20056;-65